Time;durP1;ratioP1;P1;durP2;ratioP2;P2;SDS_P1;SDS_P2;PMS_P1;PMS_P2;Temp;Humidity;BMP_temperature;BMP_pressure;BME280_temperature;BME280_humidity;BME280_pressure;Samples;Min_cycle;Max_cycle;Signal;HPM_P1;HPM_P2
2021/03/15 00:00:09;;;;;;;37.65;27.70;;;;;;;12.81;100.00;99930.22;4899690;29;20434;-73
2021/03/15 00:02:56;;;;;;;43.90;29.60;;;;;;;12.81;100.00;99922.31;4904687;29;20044;-73
2021/03/15 00:05:41;;;;;;;40.53;30.77;;;;;;;12.87;100.00;99924.69;4906006;29;20052;-73
2021/03/15 00:08:27;;;;;;;39.55;28.77;;;;;;;12.80;100.00;99915.38;4908265;29;20029;-74
2021/03/15 00:11:13;;;;;;;36.25;26.50;;;;;;;13.02;100.00;99910.16;4901656;29;20028;-74
2021/03/15 00:13:59;;;;;;;37.78;26.77;;;;;;;12.61;100.00;99913.50;4902374;29;20454;-73
2021/03/15 00:16:45;;;;;;;41.53;27.65;;;;;;;12.61;100.00;99903.84;4902721;29;20039;-72
2021/03/15 00:19:31;;;;;;;36.92;26.35;;;;;;;12.74;100.00;99899.81;4903589;29;20060;-73
2021/03/15 00:22:17;;;;;;;40.60;27.05;;;;;;;12.82;100.00;99896.91;4905327;29;20028;-72
2021/03/15 00:25:05;;;;;;;37.95;27.30;;;;;;;12.89;100.00;99888.72;4888053;29;20072;-73
2021/03/15 00:27:51;;;;;;;36.72;26.55;;;;;;;12.49;100.00;99888.56;4899615;29;20068;-74
2021/03/15 00:30:36;;;;;;;33.60;25.08;;;;;;;12.61;100.00;99885.44;4900131;29;20056;-73
2021/03/15 00:33:23;;;;;;;32.65;25.13;;;;;;;12.41;100.00;99880.09;4886145;29;20059;-73
2021/03/15 00:36:09;;;;;;;35.50;25.60;;;;;;;12.56;100.00;99876.91;4899855;29;20020;-74
2021/03/15 00:38:55;;;;;;;34.00;24.85;;;;;;;12.53;100.00;99874.38;4900120;29;20044;-73
2021/03/15 00:41:41;;;;;;;34.47;25.15;;;;;;;12.69;100.00;99867.63;4887363;29;20024;-73
2021/03/15 00:44:27;;;;;;;33.67;24.88;;;;;;;12.78;100.00;99861.16;4899854;29;20123;-73
2021/03/15 00:47:12;;;;;;;33.65;25.35;;;;;;;12.76;100.00;99862.97;4900266;29;20032;-73
2021/03/15 00:49:58;;;;;;;34.08;24.77;;;;;;;12.95;100.00;99854.28;4900640;29;20039;-73
2021/03/15 00:52:44;;;;;;;34.05;25.83;;;;;;;12.73;100.00;99850.81;4899894;29;20422;-73
2021/03/15 00:55:30;;;;;;;33.28;25.17;;;;;;;12.37;100.00;99844.38;4885665;29;20055;-74
2021/03/15 00:58:16;;;;;;;36.72;26.70;;;;;;;12.42;100.00;99845.03;4899937;29;20037;-73
2021/03/15 01:01:02;;;;;;;37.85;28.88;;;;;;;12.52;100.00;99835.91;4899327;29;20021;-73
2021/03/15 01:03:47;;;;;;;41.30;31.52;;;;;;;12.16;100.00;99825.94;4885973;29;20036;-73
2021/03/15 01:06:33;;;;;;;45.92;32.85;;;;;;;11.85;100.00;99828.84;4899657;29;20120;-73
2021/03/15 01:09:19;;;;;;;47.05;33.28;;;;;;;11.70;100.00;99824.16;4890387;29;20448;-73
2021/03/15 01:12:06;;;;;;;45.97;33.35;;;;;;;12.01;100.00;99816.88;4900752;29;20036;-73
2021/03/15 01:14:51;;;;;;;46.15;32.33;;;;;;;12.04;100.00;99822.00;4898970;29;20108;-74
2021/03/15 01:17:38;;;;;;;42.63;30.70;;;;;;;11.53;100.00;99821.25;4898883;29;20119;-74
2021/03/15 01:20:24;;;;;;;49.53;33.92;;;;;;;11.24;100.00;99817.94;4899440;29;20028;-74
2021/03/15 01:23:10;;;;;;;49.92;34.38;;;;;;;11.05;100.00;99820.31;4898559;29;20035;-72
2021/03/15 01:25:56;;;;;;;51.60;35.45;;;;;;;10.58;100.00;99817.53;4898732;29;20496;-73
2021/03/15 01:28:42;;;;;;;48.92;35.00;;;;;;;10.35;100.00;99820.00;4897734;29;20039;-73
2021/03/15 01:31:27;;;;;;;57.10;38.58;;;;;;;10.24;100.00;99812.50;4885888;29;20036;-74
2021/03/15 01:34:13;;;;;;;54.50;35.30;;;;;;;10.48;100.00;99814.34;4885475;29;20037;-74
2021/03/15 01:36:59;;;;;;;52.58;35.03;;;;;;;10.56;100.00;99807.13;4886062;29;20068;-74
2021/03/15 01:39:45;;;;;;;52.38;37.22;;;;;;;10.74;100.00;99798.69;4899709;29;20024;-74
2021/03/15 01:42:30;;;;;;;58.83;37.95;;;;;;;10.47;100.00;99796.06;4902454;29;20029;-74
2021/03/15 01:45:17;;;;;;;54.42;36.35;;;;;;;10.55;100.00;99794.06;4902302;29;20028;-74
2021/03/15 01:48:06;;;;;;;52.33;37.85;;;;;;;10.56;100.00;99796.63;4901846;29;20430;-74
2021/03/15 01:50:51;;;;;;;56.55;37.60;;;;;;;10.80;100.00;99790.59;4888663;29;20526;-75
2021/03/15 01:53:37;;;;;;;53.08;35.67;;;;;;;10.61;100.00;99789.47;4901838;29;20089;-74
2021/03/15 01:56:23;;;;;;;55.22;37.58;;;;;;;10.80;100.00;99785.38;4888255;29;20032;-74
2021/03/15 01:59:11;;;;;;;53.55;37.90;;;;;;;10.60;100.00;99773.84;4902606;29;20112;-74
2021/03/15 02:01:57;;;;;;;48.03;34.38;;;;;;;10.66;100.00;99773.63;4888995;29;20028;-74
2021/03/15 02:04:43;;;;;;;50.95;35.13;;;;;;;10.87;100.00;99767.66;4887874;29;20043;-74
2021/03/15 02:07:29;;;;;;;50.13;36.33;;;;;;;10.59;100.00;99765.13;4901130;29;20036;-74
2021/03/15 02:10:14;;;;;;;50.97;34.63;;;;;;;10.90;100.00;99763.22;4902437;29;20040;-75
2021/03/15 02:13:06;;;;;;;55.88;36.17;;;;;;;10.52;100.00;99765.38;4902713;29;20107;-75
2021/03/15 02:16:04;;;;;;;53.47;36.90;;;;;;;10.68;100.00;99753.50;4902182;29;20035;-76
2021/03/15 02:19:28;;;;;;;54.60;37.47;;;;;;;10.59;100.00;99765.13;4902188;29;20500;-74
2021/03/15 02:22:30;;;;;;;54.72;34.75;;;;;;;10.61;100.00;99765.91;4883494;29;20382;-74
2021/03/15 02:25:22;;;;;;;58.58;38.78;;;;;;;10.10;100.00;99763.19;4901305;29;20541;-73
2021/03/15 02:28:39;;;;;;;63.00;41.60;;;;;;;10.18;100.00;99766.41;4901492;29;20060;-74
2021/03/15 02:31:33;;;;;;;64.15;42.75;;;;;;;9.53;100.00;99772.72;4901787;29;20120;-74
2021/03/15 02:34:56;;;;;;;66.15;45.58;;;;;;;9.64;100.00;99777.63;4888143;29;20473;-74
2021/03/15 02:37:50;;;;;;;62.67;41.90;;;;;;;9.34;100.00;99783.75;4888146;29;20075;-73
2021/03/15 02:40:53;;;;;;;63.85;44.47;;;;;;;9.58;100.00;99777.81;4887623;29;20043;-75
2021/03/15 02:43:44;;;;;;;67.10;43.58;;;;;;;9.94;100.00;99768.91;4900925;29;20032;-74
2021/03/15 02:46:31;;;;;;;61.03;42.20;;;;;;;9.40;100.00;99766.13;4901757;29;20028;-74
2021/03/15 02:49:18;;;;;;;62.40;42.42;;;;;;;9.36;100.00;99766.25;4875061;29;20453;-74
2021/03/15 02:52:06;;;;;;;66.10;42.72;;;;;;;9.55;100.00;99768.31;4900258;29;20048;-74
2021/03/15 02:54:54;;;;;;;62.78;41.70;;;;;;;9.55;100.00;99752.63;4900897;29;20029;-74
2021/03/15 02:57:43;;;;;;;63.25;43.75;;;;;;;9.51;100.00;99752.75;4901025;29;20381;-74
2021/03/15 03:00:29;;;;;;;67.65;44.38;;;;;;;9.88;100.00;99753.38;4900930;29;20397;-74
2021/03/15 03:03:21;;;;;;;68.97;44.17;;;;;;;9.78;100.00;99744.13;4900734;29;20059;-74
2021/03/15 03:06:09;;;;;;;66.47;45.08;;;;;;;9.88;100.00;99741.19;4900758;29;20044;-74
2021/03/15 03:08:59;;;;;;;70.85;46.88;;;;;;;9.74;100.00;99743.31;4900643;29;20096;-73
2021/03/15 03:11:46;;;;;;;68.53;47.03;;;;;;;9.82;100.00;99738.72;4886517;29;20032;-74
2021/03/15 03:14:34;;;;;;;73.22;47.28;;;;;;;9.64;100.00;99741.91;4900746;29;20040;-74
2021/03/15 03:17:22;;;;;;;69.63;45.85;;;;;;;9.63;100.00;99737.56;4900081;29;20029;-73
2021/03/15 03:20:13;;;;;;;65.25;44.00;;;;;;;9.69;100.00;99729.53;4901156;29;20096;-74
2021/03/15 03:23:04;;;;;;;58.13;39.28;;;;;;;9.50;100.00;99738.84;4899525;29;20044;-74
2021/03/15 03:25:54;;;;;;;65.97;41.92;;;;;;;9.38;100.00;99739.19;4900702;29;20127;-73
2021/03/15 03:28:41;;;;;;;60.80;41.80;;;;;;;9.83;100.00;99736.97;4887196;29;20047;-73
2021/03/15 03:31:32;;;;;;;65.20;44.15;;;;;;;9.50;100.00;99732.75;4900561;29;20042;-73
2021/03/15 03:34:19;;;;;;;64.47;44.33;;;;;;;9.52;100.00;99738.75;4886835;29;20032;-74
2021/03/15 03:37:05;;;;;;;62.17;42.85;;;;;;;9.23;100.00;99743.97;4886004;29;20032;-74
2021/03/15 03:39:51;;;;;;;71.57;46.45;;;;;;;9.11;100.00;99745.16;4899951;29;20083;-74
2021/03/15 03:42:37;;;;;;;74.07;47.67;;;;;;;8.74;100.00;99727.88;4887187;29;20454;-75
2021/03/15 03:45:23;;;;;;;70.75;46.65;;;;;;;8.98;100.00;99735.09;4886049;29;20032;-74
2021/03/15 03:48:09;;;;;;;71.13;47.40;;;;;;;9.20;100.00;99733.59;4899799;29;20048;-73
2021/03/15 03:50:55;;;;;;;73.72;48.70;;;;;;;9.13;100.00;99724.22;4885956;29;20025;-75
2021/03/15 03:53:46;;;;;;;67.88;45.92;;;;;;;9.15;100.00;99727.63;4898365;29;20043;-72
2021/03/15 03:56:49;;;;;;;70.18;46.25;;;;;;;9.35;100.00;99720.97;4900003;29;20043;-74
2021/03/15 03:59:40;;;;;;;71.10;47.65;;;;;;;9.45;100.00;99716.34;4899491;29;20351;-74
2021/03/15 04:02:27;;;;;;;74.88;50.42;;;;;;;8.89;100.00;99720.50;4899774;29;20054;-73
2021/03/15 04:05:19;;;;;;;80.97;49.97;;;;;;;8.78;100.00;99725.16;4898811;29;20025;-74
2021/03/15 04:08:09;;;;;;;85.65;52.13;;;;;;;8.83;100.00;99725.91;4899789;29;20046;-74
2021/03/15 04:10:57;;;;;;;85.43;51.97;;;;;;;9.24;100.00;99730.00;4899485;29;20037;-73
2021/03/15 04:13:47;;;;;;;78.75;49.90;;;;;;;9.18;100.00;99743.25;4898934;29;20028;-74
2021/03/15 04:16:35;;;;;;;71.28;47.20;;;;;;;9.03;100.00;99760.19;4885283;29;20029;-74
2021/03/15 04:19:28;;;;;;;72.68;49.22;;;;;;;9.03;100.00;99754.09;4899526;29;20025;-72
2021/03/15 04:22:16;;;;;;;71.25;47.47;;;;;;;8.87;100.00;99755.41;4898978;29;20060;-74
2021/03/15 04:25:03;;;;;;;73.38;46.58;;;;;;;9.28;100.00;99760.38;4900450;29;20474;-74
2021/03/15 04:27:52;;;;;;;71.00;45.05;;;;;;;9.11;100.00;99754.75;4899060;29;20475;-74
2021/03/15 04:30:41;;;;;;;65.22;44.55;;;;;;;9.40;100.00;99749.56;4898931;29;20426;-73
2021/03/15 04:33:28;;;;;;;64.35;44.42;;;;;;;9.58;100.00;99746.44;4898945;29;20047;-73
2021/03/15 04:36:16;;;;;;;64.90;44.38;;;;;;;9.60;100.00;99753.34;4899380;29;20088;-73
2021/03/15 04:39:03;;;;;;;66.03;42.67;;;;;;;9.44;100.00;99738.13;4900334;29;20139;-73
2021/03/15 04:41:49;;;;;;;61.38;40.53;;;;;;;9.60;100.00;99739.41;4886113;29;20036;-73
2021/03/15 04:44:38;;;;;;;70.38;47.17;;;;;;;9.61;100.00;99738.53;4897698;29;20020;-74
2021/03/15 04:47:24;;;;;;;68.03;44.63;;;;;;;9.50;100.00;99740.59;4885377;29;20115;-73
2021/03/15 04:50:12;;;;;;;68.72;47.55;;;;;;;9.49;100.00;99738.88;4899029;29;20028;-73
2021/03/15 04:53:02;;;;;;;62.35;43.22;;;;;;;9.72;100.00;99726.84;4902308;29;20092;-73
2021/03/15 04:55:48;;;;;;;71.35;46.67;;;;;;;9.37;100.00;99729.59;4906710;29;20039;-72
2021/03/15 04:58:36;;;;;;;71.22;47.08;;;;;;;9.76;100.00;99723.22;4906512;29;20028;-74
2021/03/15 05:01:28;;;;;;;71.88;46.80;;;;;;;9.93;100.00;99712.28;4902401;29;20200;-73
2021/03/15 05:04:14;;;;;;;69.82;45.55;;;;;;;10.07;100.00;99710.97;4902073;29;20351;-73
2021/03/15 05:07:02;;;;;;;65.88;45.65;;;;;;;9.97;100.00;99706.88;4904452;29;20037;-74
2021/03/15 05:09:49;;;;;;;64.63;44.78;;;;;;;10.26;100.00;99708.63;4889581;29;20115;-73
2021/03/15 05:12:36;;;;;;;71.75;45.63;;;;;;;10.29;100.00;99703.25;4886853;29;20451;-74
2021/03/15 05:15:22;;;;;;;68.20;45.78;;;;;;;10.23;100.00;99695.63;4903770;29;20029;-74
2021/03/15 05:18:10;;;;;;;72.50;48.28;;;;;;;10.22;100.00;99699.16;4904181;29;20020;-74
2021/03/15 05:20:57;;;;;;;72.88;47.08;;;;;;;9.95;100.00;99693.00;4903491;29;20232;-74
2021/03/15 05:23:44;;;;;;;73.72;49.13;;;;;;;9.94;100.00;99688.66;4902449;29;20378;-74
2021/03/15 05:26:35;;;;;;;69.28;45.92;;;;;;;10.45;100.00;99688.75;4901445;29;20099;-73
2021/03/15 05:29:22;;;;;;;65.75;45.08;;;;;;;10.27;100.00;99692.00;4888227;29;20042;-73
2021/03/15 05:32:12;;;;;;;64.13;43.15;;;;;;;10.83;100.00;99688.31;4902927;29;20373;-73
2021/03/15 05:35:00;;;;;;;65.75;40.75;;;;;;;10.88;100.00;99694.25;4901995;29;20068;-73
2021/03/15 05:37:47;;;;;;;62.70;43.13;;;;;;;11.00;100.00;99695.59;4902590;29;20035;-73
2021/03/15 05:40:36;;;;;;;71.13;46.55;;;;;;;10.78;100.00;99686.78;4888990;29;20024;-75
2021/03/15 05:43:25;;;;;;;69.10;45.22;;;;;;;10.71;100.00;99678.28;4888782;29;20035;-73
2021/03/15 05:46:24;;;;;;;65.03;43.83;;;;;;;11.03;100.00;99675.38;4901129;29;20025;-73
2021/03/15 05:49:40;;;;;;;60.65;42.55;;;;;;;11.05;100.00;99668.31;4902016;29;20107;-73
2021/03/15 05:52:45;;;;;;;66.07;42.15;;;;;;;11.65;100.00;99666.06;4902080;29;20513;-73
2021/03/15 05:56:09;;;;;;;59.28;41.55;;;;;;;11.78;100.00;99659.41;4902975;29;20080;-74
2021/03/15 05:59:18;;;;;;;58.90;41.80;;;;;;;12.06;100.00;99661.81;4871678;29;20040;-74
2021/03/15 06:02:10;;;;;;;64.78;41.60;;;;;;;11.99;100.00;99671.72;4903271;29;20033;-74
2021/03/15 06:05:28;;;;;;;57.63;39.78;;;;;;;12.03;100.00;99662.81;4902104;29;20039;-74
2021/03/15 06:08:21;;;;;;;52.83;37.42;;;;;;;12.20;100.00;99662.09;4902830;29;20395;-74
2021/03/15 06:11:12;;;;;;;51.63;36.55;;;;;;;12.72;100.00;99673.03;4901818;29;20115;-75
2021/03/15 06:14:00;;;;;;;45.33;35.28;;;;;;;13.17;100.00;99672.81;4902435;29;20043;-74
2021/03/15 06:16:46;;;;;;;48.03;33.78;;;;;;;13.56;100.00;99676.28;4902434;29;20064;-74
2021/03/15 06:19:33;;;;;;;46.92;34.88;;;;;;;13.68;100.00;99670.44;4902280;29;20039;-74
2021/03/15 06:22:20;;;;;;;52.08;36.30;;;;;;;13.62;100.00;99670.72;4900945;29;20047;-74
2021/03/15 06:25:06;;;;;;;59.47;43.58;;;;;;;12.71;100.00;99681.84;4901555;29;20110;-73
2021/03/15 06:27:53;;;;;;;59.47;43.22;;;;;;;12.84;100.00;99676.88;4900239;29;20059;-73
2021/03/15 06:30:40;;;;;;;61.60;43.75;;;;;;;12.87;100.00;99677.59;4901650;29;20029;-73
2021/03/15 06:33:27;;;;;;;69.85;47.80;;;;;;;12.81;100.00;99675.25;4900791;29;20056;-75
2021/03/15 06:36:13;;;;;;;74.45;47.55;;;;;;;13.30;100.00;99659.06;4901901;29;20374;-74
2021/03/15 06:39:00;;;;;;;69.20;47.92;;;;;;;12.93;100.00;99666.84;4903252;29;20031;-73
2021/03/15 06:41:49;;;;;;;71.05;46.80;;;;;;;13.41;100.00;99667.31;4900533;29;20088;-73
2021/03/15 06:44:35;;;;;;;64.05;46.38;;;;;;;12.56;100.00;99664.09;4889286;29;20516;-74
2021/03/15 06:47:21;;;;;;;63.25;45.88;;;;;;;12.87;100.00;99659.19;4900827;29;20028;-72
2021/03/15 06:50:08;;;;;;;66.32;46.72;;;;;;;13.12;100.00;99657.25;4887914;29;20123;-74
2021/03/15 06:53:06;;;;;;;63.50;46.03;;;;;;;13.31;100.00;99650.22;4902005;29;20024;-72
2021/03/15 06:55:53;;;;;;;66.85;46.08;;;;;;;13.47;100.00;99651.22;4902762;29;20414;-72
2021/03/15 06:58:48;;;;;;;67.57;45.63;;;;;;;13.31;100.00;99646.75;4901569;29;20047;-73
2021/03/15 07:01:43;;;;;;;62.75;43.03;;;;;;;13.50;100.00;99639.72;4900908;29;20028;-74
2021/03/15 07:04:28;;;;;;;58.42;40.80;;;;;;;14.01;100.00;99629.34;4900506;29;20029;-74
2021/03/15 07:07:25;;;;;;;54.72;37.25;;;;;;;13.61;100.00;99632.19;4900652;29;20039;-74
2021/03/15 07:10:41;;;;;;;51.25;36.10;;;;;;;13.70;100.00;99626.47;4900128;29;20092;-74
2021/03/15 07:13:34;;;;;;;56.17;38.42;;;;;;;14.26;100.00;99616.72;4887356;29;20040;-74
2021/03/15 07:16:26;;;;;;;49.60;35.25;;;;;;;14.30;100.00;99613.84;4899634;29;20374;-73
2021/03/15 07:19:24;;;;;;;50.47;33.30;;;;;;;14.34;100.00;99614.53;4900458;29;20430;-74
2021/03/15 07:22:17;;;;;;;45.70;33.28;;;;;;;14.82;100.00;99617.31;4900997;29;20043;-73
2021/03/15 07:25:08;;;;;;;46.00;33.10;;;;;;;15.11;100.00;99621.06;4899981;29;20378;-74
2021/03/15 07:27:55;;;;;;;47.17;32.88;;;;;;;15.04;100.00;99628.47;4887076;29;20096;-74
2021/03/15 07:30:42;;;;;;;46.88;32.47;;;;;;;15.10;100.00;99607.03;4899077;29;20446;-73
2021/03/15 07:33:27;;;;;;;47.17;33.30;;;;;;;15.20;100.00;99608.25;4885793;29;20119;-74
2021/03/15 07:36:13;;;;;;;48.28;34.00;;;;;;;14.87;100.00;99609.19;4886869;29;20031;-75
2021/03/15 07:39:07;;;;;;;50.22;35.25;;;;;;;15.61;100.00;99616.56;4899978;29;20057;-74
2021/03/15 07:41:55;;;;;;;53.33;35.45;;;;;;;15.59;100.00;99619.28;4885931;29;20031;-75
2021/03/15 07:44:43;;;;;;;49.42;34.25;;;;;;;15.88;100.00;99610.63;4901295;29;20405;-75
2021/03/15 07:47:29;;;;;;;56.35;36.92;;;;;;;15.73;100.00;99611.47;4886978;29;20048;-75
2021/03/15 07:50:19;;;;;;;61.75;39.17;;;;;;;15.81;100.00;99603.13;4887207;29;20092;-74
2021/03/15 07:53:06;;;;;;;53.40;36.13;;;;;;;15.53;100.00;99610.84;4885623;29;20111;-74
2021/03/15 07:55:55;;;;;;;53.42;35.63;;;;;;;15.81;100.00;99608.41;4886019;29;20111;-74
2021/03/15 07:58:42;;;;;;;53.72;36.28;;;;;;;15.56;100.00;99602.78;4899186;29;20458;-74
2021/03/15 08:01:28;;;;;;;53.42;35.50;;;;;;;15.96;100.00;99599.63;4886121;29;20032;-73
2021/03/15 08:04:14;;;;;;;51.17;35.40;;;;;;;16.66;100.00;99603.38;4899295;29;20051;-73
2021/03/15 08:07:00;;;;;;;51.58;35.65;;;;;;;16.64;100.00;99591.19;4899386;29;20024;-74
2021/03/15 08:09:49;;;;;;;52.67;34.70;;;;;;;16.77;100.00;99593.00;4885833;29;20024;-74
2021/03/15 08:12:36;;;;;;;37.08;27.38;;;;;;;17.18;100.00;99586.03;4899279;29;20028;-74
2021/03/15 08:15:22;;;;;;;36.60;26.15;;;;;;;17.49;100.00;99587.63;4898697;29;20036;-74
2021/03/15 08:18:09;;;;;;;33.25;22.92;;;;;;;16.57;100.00;99577.50;4899179;29;20029;-73
2021/03/15 08:21:16;;;;;;;32.25;22.60;;;;;;;17.21;100.00;99566.47;4898272;29;20071;-74
2021/03/15 08:24:03;;;;;;;39.22;29.92;;;;;;;16.64;100.00;99560.28;4885077;29;20052;-74
2021/03/15 08:26:50;;;;;;;42.75;30.50;;;;;;;16.33;100.00;99560.41;4898965;29;20040;-74
2021/03/15 08:29:41;;;;;;;42.47;30.80;;;;;;;16.52;100.00;99560.19;4899190;29;20132;-73
2021/03/15 08:32:31;;;;;;;41.08;28.67;;;;;;;16.79;100.00;99551.44;4898932;29;20052;-75
2021/03/15 08:35:18;;;;;;;40.38;31.27;;;;;;;17.22;100.00;99566.38;4898791;29;20025;-74
2021/03/15 08:38:06;;;;;;;37.13;26.42;;;;;;;16.98;100.00;99561.72;4886066;29;20029;-74
2021/03/15 08:40:52;;;;;;;38.15;27.98;;;;;;;17.27;100.00;99548.38;4898573;29;20035;-74
2021/03/15 08:43:39;;;;;;;36.22;27.08;;;;;;;17.92;100.00;99545.03;4898799;29;20358;-74
2021/03/15 08:46:25;;;;;;;39.58;25.38;;;;;;;18.46;100.00;99537.88;4899214;29;20032;-74
2021/03/15 08:49:20;;;;;;;34.40;23.73;;;;;;;18.05;100.00;99531.81;4898893;29;20036;-73
2021/03/15 08:52:10;;;;;;;33.13;23.85;;;;;;;18.39;100.00;99531.28;4898903;29;20042;-75
2021/03/15 08:54:56;;;;;;;36.10;23.20;;;;;;;18.29;100.00;99535.47;4898235;29;20067;-74
2021/03/15 08:57:42;;;;;;;34.13;24.48;;;;;;;18.22;100.00;99529.75;4898643;29;20135;-74
2021/03/15 09:00:33;;;;;;;39.45;25.17;;;;;;;18.15;100.00;99523.16;4898603;29;20035;-76
2021/03/15 09:03:52;;;;;;;38.08;24.25;;;;;;;17.80;100.00;99514.03;4899408;29;20112;-75
2021/03/15 09:06:40;;;;;;;32.75;23.73;;;;;;;17.94;100.00;99513.13;4898999;29;20074;-73
2021/03/15 09:09:31;;;;;;;32.97;23.10;;;;;;;18.40;100.00;99519.69;4884538;29;20029;-75
2021/03/15 09:12:17;;;;;;;50.75;24.25;;;;;;;19.04;100.00;99517.78;4885566;29;20024;-75
2021/03/15 09:15:03;;;;;;;32.13;21.08;;;;;;;18.78;100.00;99513.44;4899361;29;20062;-74
2021/03/15 09:17:49;;;;;;;30.45;20.13;;;;;;;19.40;100.00;99510.84;4898505;29;20037;-75
2021/03/15 09:20:35;;;;;;;38.30;25.58;;;;;;;19.48;100.00;99504.00;4899010;29;20029;-76
2021/03/15 09:23:31;;;;;;;35.25;25.17;;;;;;;19.19;100.00;99497.25;4884747;29;20025;-75
2021/03/15 09:26:29;;;;;;;38.30;26.98;;;;;;;18.97;100.00;99500.59;4898495;29;20115;-75
2021/03/15 09:29:15;;;;;;;34.45;26.88;;;;;;;18.73;100.00;99496.19;4897560;29;20045;-75
2021/03/15 09:32:06;;;;;;;35.30;25.40;;;;;;;18.69;100.00;99484.09;4899131;29;20032;-75
2021/03/15 09:34:53;;;;;;;33.67;26.83;;;;;;;18.80;100.00;99485.03;4896513;29;20124;-75
2021/03/15 09:37:51;;;;;;;34.25;26.33;;;;;;;18.90;100.00;99478.09;4898229;29;20028;-74
2021/03/15 09:40:43;;;;;;;36.80;27.88;;;;;;;18.56;100.00;99475.25;4884481;29;20048;-75
2021/03/15 09:43:29;;;;;;;35.08;26.75;;;;;;;18.18;100.00;99469.06;4885249;29;20032;-75
2021/03/15 09:46:15;;;;;;;36.85;27.33;;;;;;;18.35;100.00;99456.38;4884406;29;20044;-75
2021/03/15 09:49:01;;;;;;;38.53;27.30;;;;;;;18.33;100.00;99460.91;4898799;29;20100;-75
2021/03/15 09:51:49;;;;;;;34.95;25.55;;;;;;;18.19;100.00;99468.09;4898749;29;20128;-75
2021/03/15 09:54:42;;;;;;;31.98;24.23;;;;;;;18.05;100.00;99454.97;4898437;29;20457;-75
2021/03/15 09:57:28;;;;;;;29.55;23.23;;;;;;;18.33;100.00;99446.81;4898549;29;20052;-75
2021/03/15 10:00:16;;;;;;;30.10;21.80;;;;;;;17.80;100.00;99437.19;4898606;29;20020;-75
2021/03/15 10:03:03;;;;;;;28.20;21.38;;;;;;;17.87;100.00;99434.97;4901229;29;20350;-74
2021/03/15 10:05:52;;;;;;;31.30;21.33;;;;;;;18.01;100.00;99440.22;4888965;29;20036;-75
2021/03/15 10:08:47;;;;;;;32.08;22.52;;;;;;;18.46;100.00;99432.63;4887784;29;20039;-75
2021/03/15 10:11:43;;;;;;;29.90;22.60;;;;;;;18.40;100.00;99427.75;4901061;29;20115;-75
2021/03/15 10:14:29;;;;;;;31.52;21.75;;;;;;;18.89;100.00;99425.16;4901418;29;20119;-75
2021/03/15 10:17:21;;;;;;;26.63;22.27;;;;;;;18.63;100.00;99421.69;4900822;29;20363;-74
2021/03/15 10:20:10;;;;;;;28.02;20.90;;;;;;;18.80;100.00;99409.84;4901825;29;20028;-75
2021/03/15 10:22:56;;;;;;;29.63;21.33;;;;;;;19.22;100.00;99412.91;4900485;29;20052;-75
2021/03/15 10:26:00;;;;;;;28.75;18.35;;;;;;;18.83;100.00;99397.22;4888229;29;20044;-75
2021/03/15 10:28:50;;;;;;;26.02;19.90;;;;;;;19.05;100.00;99393.88;4901725;29;20032;-75
2021/03/15 10:31:40;;;;;;;26.55;20.77;;;;;;;18.49;100.00;99381.19;4900212;29;20039;-75
2021/03/15 10:34:25;;;;;;;25.98;19.73;;;;;;;18.01;100.00;99381.91;4887742;29;20032;-75
2021/03/15 10:37:11;;;;;;;27.83;20.55;;;;;;;18.09;100.00;99383.06;4900768;29;20422;-75
2021/03/15 10:39:59;;;;;;;24.85;19.92;;;;;;;17.94;100.00;99377.97;4901627;29;20445;-75
2021/03/15 10:42:45;;;;;;;24.10;19.33;;;;;;;17.81;100.00;99372.66;4899654;29;20039;-75
2021/03/15 10:45:32;;;;;;;25.98;20.05;;;;;;;18.00;100.00;99374.88;4901108;29;20123;-75
2021/03/15 10:48:18;;;;;;;24.48;19.80;;;;;;;18.00;100.00;99365.16;4900097;29;20048;-74
2021/03/15 10:51:04;;;;;;;26.25;19.73;;;;;;;17.99;100.00;99367.91;4901655;29;20454;-75
2021/03/15 10:53:52;;;;;;;26.60;19.92;;;;;;;17.98;100.00;99363.56;4900408;29;20040;-75
2021/03/15 10:56:37;;;;;;;25.83;18.73;;;;;;;18.16;100.00;99359.63;4900057;29;20448;-74
2021/03/15 10:59:33;;;;;;;23.80;19.20;;;;;;;18.49;100.00;99358.13;4900185;29;20029;-75
2021/03/15 11:02:26;;;;;;;24.27;19.02;;;;;;;18.49;100.00;99357.31;4900277;29;20446;-75
2021/03/15 11:05:14;;;;;;;25.83;19.63;;;;;;;18.26;100.00;99344.78;4900579;29;20047;-75
2021/03/15 11:08:00;;;;;;;25.33;20.23;;;;;;;18.13;100.00;99350.09;4901193;29;20382;-75
2021/03/15 11:10:45;;;;;;;29.77;19.63;;;;;;;18.39;100.00;99345.63;4898910;29;20032;-76
2021/03/15 11:13:41;;;;;;;23.02;19.83;;;;;;;18.25;100.00;99340.44;4887472;29;20056;-76
2021/03/15 11:16:30;;;;;;;26.27;19.55;;;;;;;18.65;100.00;99336.69;4887250;29;20055;-75
2021/03/15 11:19:16;;;;;;;27.08;20.67;;;;;;;18.70;100.00;99339.84;4899769;29;20616;-75
2021/03/15 11:22:02;;;;;;;25.13;20.27;;;;;;;18.52;100.00;99327.88;4899094;29;20056;-75
2021/03/15 11:24:48;;;;;;;30.10;19.70;;;;;;;18.50;100.00;99321.84;4900451;29;20052;-74
2021/03/15 11:27:34;;;;;;;32.75;21.85;;;;;;;18.90;100.00;99312.72;4886155;29;20104;-75
2021/03/15 11:30:25;;;;;;;32.30;20.50;;;;;;;18.95;100.00;99308.75;4900119;29;20029;-76
2021/03/15 11:33:13;;;;;;;25.75;18.27;;;;;;;19.50;100.00;99299.34;4900954;29;20033;-75
2021/03/15 11:36:01;;;;;;;23.23;17.40;;;;;;;19.04;100.00;99304.56;4899780;29;20032;-75
2021/03/15 11:38:52;;;;;;;21.35;18.15;;;;;;;19.44;100.00;99297.16;4901376;29;20454;-75
2021/03/15 11:41:40;;;;;;;26.30;18.08;;;;;;;19.54;100.00;99285.72;4899518;29;20043;-77
2021/03/15 11:44:25;;;;;;;21.35;18.20;;;;;;;19.61;100.00;99284.25;4886632;29;20343;-75
2021/03/15 11:47:11;;;;;;;25.25;17.80;;;;;;;19.28;100.00;99276.22;4898914;29;20032;-75
2021/03/15 11:49:57;;;;;;;32.30;26.25;;;;;;;18.86;100.00;99282.03;4899927;29;20032;-76
2021/03/15 11:52:43;;;;;;;42.55;30.35;;;;;;;18.51;100.00;99278.47;4900164;29;20411;-75
2021/03/15 11:55:29;;;;;;;43.67;33.22;;;;;;;18.24;100.00;99268.00;4900953;29;20047;-76
2021/03/15 11:58:15;;;;;;;45.15;34.72;;;;;;;18.51;100.00;99254.59;4900508;29;20454;-75
2021/03/15 12:01:08;;;;;;;53.30;36.95;;;;;;;17.96;100.00;99264.75;4899138;29;20040;-75
2021/03/15 12:03:54;;;;;;;56.08;38.53;;;;;;;17.82;100.00;99260.44;4885887;29;20044;-75
2021/03/15 12:06:42;;;;;;;69.93;51.05;;;;;;;17.81;100.00;99263.19;4899346;29;20020;-76
2021/03/15 12:09:29;;;;;;;51.47;39.08;;;;;;;17.70;100.00;99255.16;4899915;29;20040;-75
2021/03/15 12:12:15;;;;;;;52.67;38.38;;;;;;;17.00;100.00;99253.75;4899430;29;20043;-75
2021/03/15 12:15:02;;;;;;;58.00;40.72;;;;;;;17.50;100.00;99242.44;4886810;29;20029;-76
2021/03/15 12:17:48;;;;;;;57.83;41.13;;;;;;;17.05;100.00;99233.16;4899645;29;20031;-75
2021/03/15 12:20:34;;;;;;;54.72;40.55;;;;;;;17.82;100.00;99233.94;4898866;29;20141;-75
2021/03/15 12:23:20;;;;;;;53.40;37.90;;;;;;;17.83;100.00;99229.47;4898950;29;20060;-74
2021/03/15 12:26:06;;;;;;;51.40;38.40;;;;;;;17.57;100.00;99219.88;4899162;29;20030;-76
2021/03/15 12:28:52;;;;;;;60.20;45.22;;;;;;;18.09;100.00;99216.06;4898220;29;20032;-75
2021/03/15 12:31:37;;;;;;;66.25;49.65;;;;;;;17.58;100.00;99218.91;4900352;29;20119;-75
2021/03/15 12:34:23;;;;;;;87.00;61.30;;;;;;;17.92;100.00;99212.97;4898572;29;20032;-76
2021/03/15 12:37:09;;;;;;;84.00;59.38;;;;;;;17.46;100.00;99202.09;4899491;29;20025;-76
2021/03/15 12:39:55;;;;;;;82.55;58.55;;;;;;;17.50;100.00;99205.34;4898777;29;20056;-75
2021/03/15 12:42:41;;;;;;;75.43;52.40;;;;;;;17.15;100.00;99205.09;4898222;29;20113;-75
2021/03/15 12:45:27;;;;;;;75.40;49.55;;;;;;;17.12;100.00;99193.88;4884668;29;20020;-76
2021/03/15 12:48:13;;;;;;;66.25;45.38;;;;;;;16.93;100.00;99194.28;4898541;29;20020;-76
2021/03/15 12:50:58;;;;;;;68.60;50.88;;;;;;;16.93;100.00;99190.78;4898877;29;20039;-75